sensor_id;sensor_type;location;lat;lon;timestamp;temperature;humidity
27492;DHT22;14927;51.210;6.838;2023-04-03T00:00:19;7.50;57.60
27492;DHT22;14927;51.210;6.838;2023-04-03T00:03:04;7.50;57.60
27492;DHT22;14927;51.210;6.838;2023-04-03T00:05:49;7.50;57.60
27492;DHT22;14927;51.210;6.838;2023-04-03T00:08:34;7.50;57.60
27492;DHT22;14927;51.210;6.838;2023-04-03T00:11:19;7.40;57.50
27492;DHT22;14927;51.210;6.838;2023-04-03T00:14:04;7.40;57.50
27492;DHT22;14927;51.210;6.838;2023-04-03T00:16:49;7.60;57.70
27492;DHT22;14927;51.210;6.838;2023-04-03T00:19:34;7.40;57.70
27492;DHT22;14927;51.210;6.838;2023-04-03T00:22:19;7.30;57.80
27492;DHT22;14927;51.210;6.838;2023-04-03T00:25:04;7.30;57.80
27492;DHT22;14927;51.210;6.838;2023-04-03T00:27:49;7.30;57.90
27492;DHT22;14927;51.210;6.838;2023-04-03T00:30:34;7.30;57.90
27492;DHT22;14927;51.210;6.838;2023-04-03T00:33:19;7.20;57.80
27492;DHT22;14927;51.210;6.838;2023-04-03T00:36:09;7.20;57.90
27492;DHT22;14927;51.210;6.838;2023-04-03T00:38:55;7.20;58.00
27492;DHT22;14927;51.210;6.838;2023-04-03T00:41:39;7.10;58.00
27492;DHT22;14927;51.210;6.838;2023-04-03T00:47:18;7.30;58.40
27492;DHT22;14927;51.210;6.838;2023-04-03T00:50:04;7.10;58.30
27492;DHT22;14927;51.210;6.838;2023-04-03T00:52:49;7.10;58.30
27492;DHT22;14927;51.210;6.838;2023-04-03T00:55:35;7.30;58.50
27492;DHT22;14927;51.210;6.838;2023-04-03T00:58:25;7.00;58.40
27492;DHT22;14927;51.210;6.838;2023-04-03T01:01:16;7.00;58.40
27492;DHT22;14927;51.210;6.838;2023-04-03T01:04:04;7.20;58.60
27492;DHT22;14927;51.210;6.838;2023-04-03T01:06:50;6.90;58.50
27492;DHT22;14927;51.210;6.838;2023-04-03T01:09:36;6.90;58.60
27492;DHT22;14927;51.210;6.838;2023-04-03T01:12:27;6.90;58.60
27492;DHT22;14927;51.210;6.838;2023-04-03T01:15:20;6.80;58.70
27492;DHT22;14927;51.210;6.838;2023-04-03T01:18:10;6.80;58.70
27492;DHT22;14927;51.210;6.838;2023-04-03T01:26:38;6.80;59.00
27492;DHT22;14927;51.210;6.838;2023-04-03T01:29:23;6.80;59.00
27492;DHT22;14927;51.210;6.838;2023-04-03T01:32:08;6.90;59.10
27492;DHT22;14927;51.210;6.838;2023-04-03T01:34:52;6.80;59.10
27492;DHT22;14927;51.210;6.838;2023-04-03T01:37:37;6.70;59.20
27492;DHT22;14927;51.210;6.838;2023-04-03T01:40:22;6.70;59.20
27492;DHT22;14927;51.210;6.838;2023-04-03T01:43:06;6.80;59.30
27492;DHT22;14927;51.210;6.838;2023-04-03T01:45:51;6.70;59.30
27492;DHT22;14927;51.210;6.838;2023-04-03T01:48:37;6.80;59.40
27492;DHT22;14927;51.210;6.838;2023-04-03T01:51:22;6.70;59.30
27492;DHT22;14927;51.210;6.838;2023-04-03T01:54:06;6.70;59.30
27492;DHT22;14927;51.210;6.838;2023-04-03T01:56:51;6.70;59.30
27492;DHT22;14927;51.210;6.838;2023-04-03T01:59:36;6.70;59.40
27492;DHT22;14927;51.210;6.838;2023-04-03T02:02:21;6.70;59.40
27492;DHT22;14927;51.210;6.838;2023-04-03T02:05:06;6.70;59.30
27492;DHT22;14927;51.210;6.838;2023-04-03T02:07:51;6.70;59.30
27492;DHT22;14927;51.210;6.838;2023-04-03T02:10:36;6.80;59.30
27492;DHT22;14927;51.210;6.838;2023-04-03T02:13:20;6.70;59.20
27492;DHT22;14927;51.210;6.838;2023-04-03T02:16:07;6.70;59.20
27492;DHT22;14927;51.210;6.838;2023-04-03T02:18:54;6.70;59.20
27492;DHT22;14927;51.210;6.838;2023-04-03T02:21:39;6.80;59.10
27492;DHT22;14927;51.210;6.838;2023-04-03T02:24:24;6.80;59.10
27492;DHT22;14927;51.210;6.838;2023-04-03T02:27:09;6.80;59.00
27492;DHT22;14927;51.210;6.838;2023-04-03T02:29:54;6.80;58.90
27492;DHT22;14927;51.210;6.838;2023-04-03T02:32:38;6.80;58.90
27492;DHT22;14927;51.210;6.838;2023-04-03T02:35:24;7.10;59.00
27492;DHT22;14927;51.210;6.838;2023-04-03T02:38:09;6.90;58.80
27492;DHT22;14927;51.210;6.838;2023-04-03T02:40:55;6.80;58.70
27492;DHT22;14927;51.210;6.838;2023-04-03T02:43:47;6.90;58.70
27492;DHT22;14927;51.210;6.838;2023-04-03T02:46:32;6.90;58.70
27492;DHT22;14927;51.210;6.838;2023-04-03T02:49:17;6.90;58.70
27492;DHT22;14927;51.210;6.838;2023-04-03T02:52:01;6.90;58.70
27492;DHT22;14927;51.210;6.838;2023-04-03T02:54:46;6.90;58.70
27492;DHT22;14927;51.210;6.838;2023-04-03T02:57:31;6.90;58.70
27492;DHT22;14927;51.210;6.838;2023-04-03T03:00:15;6.90;58.70
27492;DHT22;14927;51.210;6.838;2023-04-03T03:03:00;6.80;58.60
27492;DHT22;14927;51.210;6.838;2023-04-03T03:05:45;6.90;58.60
27492;DHT22;14927;51.210;6.838;2023-04-03T03:08:30;6.90;58.70
27492;DHT22;14927;51.210;6.838;2023-04-03T03:11:15;6.90;58.60
27492;DHT22;14927;51.210;6.838;2023-04-03T03:14:00;7.00;58.60
27492;DHT22;14927;51.210;6.838;2023-04-03T03:16:45;7.00;59.20
27492;DHT22;14927;51.210;6.838;2023-04-03T03:19:29;6.90;58.50
27492;DHT22;14927;51.210;6.838;2023-04-03T03:22:14;7.00;58.40
27492;DHT22;14927;51.210;6.838;2023-04-03T03:24:59;7.00;58.40
27492;DHT22;14927;51.210;6.838;2023-04-03T03:27:43;7.00;58.40
27492;DHT22;14927;51.210;6.838;2023-04-03T03:30:28;7.00;58.40
27492;DHT22;14927;51.210;6.838;2023-04-03T03:33:13;7.00;58.40
27492;DHT22;14927;51.210;6.838;2023-04-03T03:35:58;7.00;58.40
27492;DHT22;14927;51.210;6.838;2023-04-03T03:38:42;7.00;58.30
27492;DHT22;14927;51.210;6.838;2023-04-03T03:41:27;7.00;58.20
27492;DHT22;14927;51.210;6.838;2023-04-03T03:44:12;7.00;58.20
27492;DHT22;14927;51.210;6.838;2023-04-03T03:46:56;7.20;58.10
27492;DHT22;14927;51.210;6.838;2023-04-03T03:49:41;7.10;58.00
27492;DHT22;14927;51.210;6.838;2023-04-03T03:52:26;7.00;57.90
27492;DHT22;14927;51.210;6.838;2023-04-03T03:55:10;7.00;57.90
27492;DHT22;14927;51.210;6.838;2023-04-03T03:57:55;7.10;58.00
27492;DHT22;14927;51.210;6.838;2023-04-03T04:00:40;7.10;58.00
27492;DHT22;14927;51.210;6.838;2023-04-03T04:03:24;7.10;57.90
27492;DHT22;14927;51.210;6.838;2023-04-03T04:06:09;7.10;57.80
27492;DHT22;14927;51.210;6.838;2023-04-03T04:08:53;7.10;57.80
27492;DHT22;14927;51.210;6.838;2023-04-03T04:11:38;7.10;57.80
27492;DHT22;14927;51.210;6.838;2023-04-03T04:14:24;7.10;57.70
27492;DHT22;14927;51.210;6.838;2023-04-03T04:17:09;7.10;57.70
27492;DHT22;14927;51.210;6.838;2023-04-03T04:19:54;7.10;57.60
27492;DHT22;14927;51.210;6.838;2023-04-03T04:22:39;7.20;57.60
27492;DHT22;14927;51.210;6.838;2023-04-03T04:25:24;7.10;57.50
27492;DHT22;14927;51.210;6.838;2023-04-03T04:28:09;7.10;57.40
27492;DHT22;14927;51.210;6.838;2023-04-03T04:30:54;7.10;57.40
27492;DHT22;14927;51.210;6.838;2023-04-03T04:33:38;7.10;57.40
27492;DHT22;14927;51.210;6.838;2023-04-03T04:36:23;7.10;57.40
27492;DHT22;14927;51.210;6.838;2023-04-03T04:39:08;7.10;57.40
27492;DHT22;14927;51.210;6.838;2023-04-03T04:41:53;7.10;57.30
27492;DHT22;14927;51.210;6.838;2023-04-03T04:44:38;7.10;57.30
27492;DHT22;14927;51.210;6.838;2023-04-03T04:47:23;7.30;57.30
27492;DHT22;14927;51.210;6.838;2023-04-03T04:50:08;7.10;57.20
27492;DHT22;14927;51.210;6.838;2023-04-03T04:52:53;7.10;57.20
27492;DHT22;14927;51.210;6.838;2023-04-03T04:55:38;7.20;57.30
27492;DHT22;14927;51.210;6.838;2023-04-03T04:58:23;7.10;57.20
27492;DHT22;14927;51.210;6.838;2023-04-03T05:01:09;7.10;57.20
27492;DHT22;14927;51.210;6.838;2023-04-03T05:03:55;7.10;57.20
27492;DHT22;14927;51.210;6.838;2023-04-03T05:06:39;7.00;57.20
27492;DHT22;14927;51.210;6.838;2023-04-03T05:09:24;7.10;57.30
27492;DHT22;14927;51.210;6.838;2023-04-03T05:12:09;7.00;57.20
27492;DHT22;14927;51.210;6.838;2023-04-03T05:14:54;7.10;57.30
27492;DHT22;14927;51.210;6.838;2023-04-03T05:17:39;7.00;57.30
27492;DHT22;14927;51.210;6.838;2023-04-03T05:20:23;7.00;57.30
27492;DHT22;14927;51.210;6.838;2023-04-03T05:23:09;7.00;57.20
27492;DHT22;14927;51.210;6.838;2023-04-03T05:25:55;7.00;57.20
27492;DHT22;14927;51.210;6.838;2023-04-03T05:28:40;7.00;57.20
27492;DHT22;14927;51.210;6.838;2023-04-03T05:31:25;7.00;57.20
27492;DHT22;14927;51.210;6.838;2023-04-03T05:34:13;7.00;57.20
27492;DHT22;14927;51.210;6.838;2023-04-03T05:36:59;7.00;57.20
27492;DHT22;14927;51.210;6.838;2023-04-03T05:39:44;7.10;57.30
27492;DHT22;14927;51.210;6.838;2023-04-03T05:42:29;7.00;57.20
27492;DHT22;14927;51.210;6.838;2023-04-03T05:45:14;7.00;57.20
27492;DHT22;14927;51.210;6.838;2023-04-03T05:47:59;7.00;57.20
27492;DHT22;14927;51.210;6.838;2023-04-03T05:50:43;7.00;57.30
27492;DHT22;14927;51.210;6.838;2023-04-03T05:53:30;7.00;57.40
27492;DHT22;14927;51.210;6.838;2023-04-03T05:56:16;7.20;57.50
27492;DHT22;14927;51.210;6.838;2023-04-03T05:59:01;7.00;57.40
27492;DHT22;14927;51.210;6.838;2023-04-03T06:01:46;7.00;57.40
27492;DHT22;14927;51.210;6.838;2023-04-03T06:04:31;7.00;57.40
27492;DHT22;14927;51.210;6.838;2023-04-03T06:07:22;7.00;57.30
27492;DHT22;14927;51.210;6.838;2023-04-03T06:10:12;7.00;57.30
27492;DHT22;14927;51.210;6.838;2023-04-03T06:12:57;7.00;57.30
27492;DHT22;14927;51.210;6.838;2023-04-03T06:15:41;7.00;57.30
27492;DHT22;14927;51.210;6.838;2023-04-03T06:18:27;7.00;57.50
27492;DHT22;14927;51.210;6.838;2023-04-03T06:21:12;7.00;57.40
27492;DHT22;14927;51.210;6.838;2023-04-03T06:23:56;7.00;57.50
27492;DHT22;14927;51.210;6.838;2023-04-03T06:26:42;7.00;57.60
27492;DHT22;14927;51.210;6.838;2023-04-03T06:29:27;7.10;57.60
27492;DHT22;14927;51.210;6.838;2023-04-03T06:32:12;7.10;57.60
27492;DHT22;14927;51.210;6.838;2023-04-03T06:34:57;7.10;57.50
27492;DHT22;14927;51.210;6.838;2023-04-03T06:37:42;7.20;57.50
27492;DHT22;14927;51.210;6.838;2023-04-03T06:40:27;7.20;58.20
27492;DHT22;14927;51.210;6.838;2023-04-03T06:43:12;7.20;57.50
27492;DHT22;14927;51.210;6.838;2023-04-03T06:45:57;7.30;57.40
27492;DHT22;14927;51.210;6.838;2023-04-03T06:48:42;7.30;57.30
27492;DHT22;14927;51.210;6.838;2023-04-03T06:51:29;7.40;57.30
27492;DHT22;14927;51.210;6.838;2023-04-03T06:54:14;7.40;57.20
27492;DHT22;14927;51.210;6.838;2023-04-03T06:56:59;7.40;57.10
27492;DHT22;14927;51.210;6.838;2023-04-03T06:59:44;7.50;57.00
27492;DHT22;14927;51.210;6.838;2023-04-03T07:02:28;7.50;56.90
27492;DHT22;14927;51.210;6.838;2023-04-03T07:05:13;7.50;57.50
27492;DHT22;14927;51.210;6.838;2023-04-03T07:07:58;7.60;56.80
27492;DHT22;14927;51.210;6.838;2023-04-03T07:10:43;7.60;56.80
27492;DHT22;14927;51.210;6.838;2023-04-03T07:13:28;7.70;56.70
27492;DHT22;14927;51.210;6.838;2023-04-03T07:16:13;7.80;56.60
27492;DHT22;14927;51.210;6.838;2023-04-03T07:18:58;7.80;56.60
27492;DHT22;14927;51.210;6.838;2023-04-03T07:21:43;7.90;56.50
27492;DHT22;14927;51.210;6.838;2023-04-03T07:24:27;7.90;56.90
27492;DHT22;14927;51.210;6.838;2023-04-03T07:27:12;7.90;56.20
27492;DHT22;14927;51.210;6.838;2023-04-03T07:29:57;8.00;56.00
27492;DHT22;14927;51.210;6.838;2023-04-03T07:32:42;8.10;55.90
27492;DHT22;14927;51.210;6.838;2023-04-03T07:35:26;8.10;55.70
27492;DHT22;14927;51.210;6.838;2023-04-03T07:38:12;8.20;55.60
27492;DHT22;14927;51.210;6.838;2023-04-03T07:40:56;8.10;55.40
27492;DHT22;14927;51.210;6.838;2023-04-03T07:43:41;8.20;55.30
27492;DHT22;14927;51.210;6.838;2023-04-03T07:46:26;8.20;55.00
27492;DHT22;14927;51.210;6.838;2023-04-03T07:49:11;8.30;54.90
27492;DHT22;14927;51.210;6.838;2023-04-03T07:51:55;8.30;54.50
27492;DHT22;14927;51.210;6.838;2023-04-03T07:54:40;8.40;54.30
27492;DHT22;14927;51.210;6.838;2023-04-03T07:57:26;8.40;54.20
27492;DHT22;14927;51.210;6.838;2023-04-03T08:00:11;8.50;54.20
27492;DHT22;14927;51.210;6.838;2023-04-03T08:02:56;8.50;54.00
27492;DHT22;14927;51.210;6.838;2023-04-03T08:05:44;8.60;53.70
27492;DHT22;14927;51.210;6.838;2023-04-03T08:08:30;8.60;53.50
27492;DHT22;14927;51.210;6.838;2023-04-03T08:11:15;8.70;53.20
27492;DHT22;14927;51.210;6.838;2023-04-03T08:14:00;8.70;52.80
27492;DHT22;14927;51.210;6.838;2023-04-03T08:16:47;8.80;52.70
27492;DHT22;14927;51.210;6.838;2023-04-03T08:19:33;8.90;52.50
27492;DHT22;14927;51.210;6.838;2023-04-03T08:22:17;8.90;52.00
27492;DHT22;14927;51.210;6.838;2023-04-03T08:25:02;8.90;51.50
27492;DHT22;14927;51.210;6.838;2023-04-03T08:27:50;9.00;51.10
27492;DHT22;14927;51.210;6.838;2023-04-03T08:30:38;9.10;50.80
27492;DHT22;14927;51.210;6.838;2023-04-03T08:33:23;9.10;50.30
27492;DHT22;14927;51.210;6.838;2023-04-03T08:36:17;9.20;50.10
27492;DHT22;14927;51.210;6.838;2023-04-03T08:39:05;9.20;49.20
27492;DHT22;14927;51.210;6.838;2023-04-03T08:41:50;9.30;49.50
27492;DHT22;14927;51.210;6.838;2023-04-03T08:48:06;9.40;48.10
27492;DHT22;14927;51.210;6.838;2023-04-03T08:50:59;9.40;47.50
27492;DHT22;14927;51.210;6.838;2023-04-03T08:53:57;9.50;47.70
27492;DHT22;14927;51.210;6.838;2023-04-03T08:56:46;9.50;46.70
27492;DHT22;14927;51.210;6.838;2023-04-03T08:59:34;9.60;47.30
27492;DHT22;14927;51.210;6.838;2023-04-03T09:02:41;9.60;46.50
27492;DHT22;14927;51.210;6.838;2023-04-03T09:05:37;9.70;45.70
27492;DHT22;14927;51.210;6.838;2023-04-03T09:08:30;9.60;46.40
27492;DHT22;14927;51.210;6.838;2023-04-03T09:14:39;9.80;45.10
27492;DHT22;14927;51.210;6.838;2023-04-03T09:23:58;9.90;44.00
27492;DHT22;14927;51.210;6.838;2023-04-03T09:27:07;10.00;45.20
27492;DHT22;14927;51.210;6.838;2023-04-03T09:29:56;10.00;44.20
27492;DHT22;14927;51.210;6.838;2023-04-03T09:32:45;10.10;45.00
27492;DHT22;14927;51.210;6.838;2023-04-03T09:35:36;10.10;44.60
27492;DHT22;14927;51.210;6.838;2023-04-03T09:38:22;10.20;44.10
27492;DHT22;14927;51.210;6.838;2023-04-03T09:41:15;10.20;44.10
27492;DHT22;14927;51.210;6.838;2023-04-03T09:44:02;10.30;43.60
27492;DHT22;14927;51.210;6.838;2023-04-03T09:46:46;10.40;44.10
27492;DHT22;14927;51.210;6.838;2023-04-03T09:49:31;10.40;43.90
27492;DHT22;14927;51.210;6.838;2023-04-03T09:52:25;10.50;43.90
27492;DHT22;14927;51.210;6.838;2023-04-03T09:55:17;10.50;43.50
27492;DHT22;14927;51.210;6.838;2023-04-03T09:58:24;10.60;43.10
27492;DHT22;14927;51.210;6.838;2023-04-03T10:01:35;10.60;42.30
27492;DHT22;14927;51.210;6.838;2023-04-03T10:04:21;10.60;42.80
27492;DHT22;14927;51.210;6.838;2023-04-03T10:07:30;10.80;44.00
27492;DHT22;14927;51.210;6.838;2023-04-03T10:13:14;11.00;43.00
27492;DHT22;14927;51.210;6.838;2023-04-03T10:16:18;11.10;42.30
27492;DHT22;14927;51.210;6.838;2023-04-03T10:19:25;11.20;42.70
27492;DHT22;14927;51.210;6.838;2023-04-03T10:28:45;11.40;42.10
27492;DHT22;14927;51.210;6.838;2023-04-03T10:31:46;11.40;41.20
27492;DHT22;14927;51.210;6.838;2023-04-03T10:35:33;11.50;42.10
27492;DHT22;14927;51.210;6.838;2023-04-03T10:38:36;11.60;41.10
27492;DHT22;14927;51.210;6.838;2023-04-03T10:44:57;11.80;41.20
27492;DHT22;14927;51.210;6.838;2023-04-03T10:51:29;12.00;41.10
27492;DHT22;14927;51.210;6.838;2023-04-03T10:57:26;12.20;40.20
27492;DHT22;14927;51.210;6.838;2023-04-03T11:00:21;12.30;40.30
27492;DHT22;14927;51.210;6.838;2023-04-03T11:03:53;12.30;38.90
27492;DHT22;14927;51.210;6.838;2023-04-03T11:09:58;12.40;37.30
27492;DHT22;14927;51.210;6.838;2023-04-03T11:12:51;12.50;37.80
27492;DHT22;14927;51.210;6.838;2023-04-03T11:15:46;12.60;37.50
27492;DHT22;14927;51.210;6.838;2023-04-03T11:18:42;12.60;37.50
27492;DHT22;14927;51.210;6.838;2023-04-03T11:21:37;12.80;37.00
27492;DHT22;14927;51.210;6.838;2023-04-03T11:25:04;12.80;36.50
27492;DHT22;14927;51.210;6.838;2023-04-03T11:28:02;12.90;35.80
27492;DHT22;14927;51.210;6.838;2023-04-03T11:37:36;13.10;35.50
27492;DHT22;14927;51.210;6.838;2023-04-03T11:40:35;13.20;35.50
27492;DHT22;14927;51.210;6.838;2023-04-03T11:43:25;13.30;34.00
27492;DHT22;14927;51.210;6.838;2023-04-03T11:46:11;13.40;34.50
27492;DHT22;14927;51.210;6.838;2023-04-03T11:48:56;13.50;34.50
27492;DHT22;14927;51.210;6.838;2023-04-03T11:51:41;13.50;34.00
27492;DHT22;14927;51.210;6.838;2023-04-03T11:54:47;13.70;33.70
27492;DHT22;14927;51.210;6.838;2023-04-03T11:58:16;13.80;32.60
27492;DHT22;14927;51.210;6.838;2023-04-03T12:01:11;14.00;32.80
27492;DHT22;14927;51.210;6.838;2023-04-03T12:04:31;14.10;33.30
27492;DHT22;14927;51.210;6.838;2023-04-03T12:07:18;14.40;33.60
27492;DHT22;14927;51.210;6.838;2023-04-03T12:10:15;14.60;32.80
27492;DHT22;14927;51.210;6.838;2023-04-03T12:13:01;14.80;32.10
27492;DHT22;14927;51.210;6.838;2023-04-03T12:15:52;15.00;33.40
27492;DHT22;14927;51.210;6.838;2023-04-03T12:24:50;15.80;32.30
27492;DHT22;14927;51.210;6.838;2023-04-03T12:27:42;15.90;31.60
27492;DHT22;14927;51.210;6.838;2023-04-03T12:30:30;16.10;31.20
27492;DHT22;14927;51.210;6.838;2023-04-03T12:36:18;16.50;31.00
27492;DHT22;14927;51.210;6.838;2023-04-03T12:48:58;17.60;29.20
27492;DHT22;14927;51.210;6.838;2023-04-03T12:51:45;17.90;30.10
27492;DHT22;14927;51.210;6.838;2023-04-03T12:54:38;18.10;29.80
27492;DHT22;14927;51.210;6.838;2023-04-03T12:57:27;18.40;28.70
27492;DHT22;14927;51.210;6.838;2023-04-03T13:03:07;19.00;27.80
27492;DHT22;14927;51.210;6.838;2023-04-03T13:06:06;19.30;29.20
27492;DHT22;14927;51.210;6.838;2023-04-03T13:08:55;19.50;28.70
27492;DHT22;14927;51.210;6.838;2023-04-03T13:11:44;19.80;28.40
27492;DHT22;14927;51.210;6.838;2023-04-03T13:14:30;20.10;27.90
27492;DHT22;14927;51.210;6.838;2023-04-03T13:17:16;20.50;27.60
27492;DHT22;14927;51.210;6.838;2023-04-03T13:20:18;20.80;27.00
27492;DHT22;14927;51.210;6.838;2023-04-03T13:23:12;21.10;25.80
27492;DHT22;14927;51.210;6.838;2023-04-03T13:26:03;21.40;26.50
27492;DHT22;14927;51.210;6.838;2023-04-03T13:28:49;21.60;26.50
27492;DHT22;14927;51.210;6.838;2023-04-03T13:31:37;21.90;26.10
27492;DHT22;14927;51.210;6.838;2023-04-03T13:34:25;22.10;25.90
27492;DHT22;14927;51.210;6.838;2023-04-03T13:37:29;22.30;25.80
27492;DHT22;14927;51.210;6.838;2023-04-03T13:40:17;22.60;24.30
27492;DHT22;14927;51.210;6.838;2023-04-03T13:43:06;23.00;25.70
27492;DHT22;14927;51.210;6.838;2023-04-03T13:48:56;23.60;24.60
27492;DHT22;14927;51.210;6.838;2023-04-03T13:52:33;23.80;24.50
27492;DHT22;14927;51.210;6.838;2023-04-03T14:01:18;24.80;23.90
27492;DHT22;14927;51.210;6.838;2023-04-03T14:04:20;25.10;22.40
27492;DHT22;14927;51.210;6.838;2023-04-03T14:07:11;25.30;22.40
27492;DHT22;14927;51.210;6.838;2023-04-03T14:09:57;25.40;22.50
27492;DHT22;14927;51.210;6.838;2023-04-03T14:12:42;25.60;22.10
27492;DHT22;14927;51.210;6.838;2023-04-03T14:15:28;25.80;21.70
27492;DHT22;14927;51.210;6.838;2023-04-03T14:18:17;26.00;21.40
27492;DHT22;14927;51.210;6.838;2023-04-03T14:21:03;26.10;20.90
27492;DHT22;14927;51.210;6.838;2023-04-03T14:23:49;26.20;21.10
27492;DHT22;14927;51.210;6.838;2023-04-03T14:26:34;26.40;20.80
27492;DHT22;14927;51.210;6.838;2023-04-03T14:29:22;26.40;20.70
27492;DHT22;14927;51.210;6.838;2023-04-03T14:32:07;26.50;20.20
27492;DHT22;14927;51.210;6.838;2023-04-03T14:34:55;26.50;20.40
27492;DHT22;14927;51.210;6.838;2023-04-03T14:37:43;26.50;20.10
27492;DHT22;14927;51.210;6.838;2023-04-03T14:40:28;26.50;19.60
27492;DHT22;14927;51.210;6.838;2023-04-03T14:43:16;26.40;19.50
27492;DHT22;14927;51.210;6.838;2023-04-03T14:46:02;26.40;19.70
27492;DHT22;14927;51.210;6.838;2023-04-03T14:48:47;26.30;19.50
27492;DHT22;14927;51.210;6.838;2023-04-03T14:51:33;26.20;19.20
27492;DHT22;14927;51.210;6.838;2023-04-03T14:54:23;26.20;19.20
27492;DHT22;14927;51.210;6.838;2023-04-03T14:57:13;26.10;19.90
27492;DHT22;14927;51.210;6.838;2023-04-03T14:59:59;26.00;19.40
27492;DHT22;14927;51.210;6.838;2023-04-03T15:02:46;26.00;19.60
27492;DHT22;14927;51.210;6.838;2023-04-03T15:05:31;26.00;19.80
27492;DHT22;14927;51.210;6.838;2023-04-03T15:08:25;26.10;19.80
27492;DHT22;14927;51.210;6.838;2023-04-03T15:11:14;26.10;19.10
27492;DHT22;14927;51.210;6.838;2023-04-03T15:14:00;26.30;19.40
27492;DHT22;14927;51.210;6.838;2023-04-03T15:16:45;26.30;19.20
27492;DHT22;14927;51.210;6.838;2023-04-03T15:19:37;26.20;19.20
27492;DHT22;14927;51.210;6.838;2023-04-03T15:22:23;26.10;19.30
27492;DHT22;14927;51.210;6.838;2023-04-03T15:25:08;26.00;19.30
27492;DHT22;14927;51.210;6.838;2023-04-03T15:27:55;25.90;19.40
27492;DHT22;14927;51.210;6.838;2023-04-03T15:30:40;25.80;19.30
27492;DHT22;14927;51.210;6.838;2023-04-03T15:33:27;25.70;19.20
27492;DHT22;14927;51.210;6.838;2023-04-03T15:36:12;25.50;19.00
27492;DHT22;14927;51.210;6.838;2023-04-03T15:38:56;25.30;19.10
27492;DHT22;14927;51.210;6.838;2023-04-03T15:41:41;25.20;19.20
27492;DHT22;14927;51.210;6.838;2023-04-03T15:44:26;24.80;19.40
27492;DHT22;14927;51.210;6.838;2023-04-03T15:47:11;24.80;19.80
27492;DHT22;14927;51.210;6.838;2023-04-03T15:49:56;24.50;19.90
27492;DHT22;14927;51.210;6.838;2023-04-03T15:52:41;24.60;19.80
27492;DHT22;14927;51.210;6.838;2023-04-03T15:55:30;24.50;19.60
27492;DHT22;14927;51.210;6.838;2023-04-03T15:58:16;24.40;19.40
27492;DHT22;14927;51.210;6.838;2023-04-03T16:01:02;24.10;19.50
27492;DHT22;14927;51.210;6.838;2023-04-03T16:03:47;23.70;19.50
27492;DHT22;14927;51.210;6.838;2023-04-03T16:06:33;23.40;19.80
27492;DHT22;14927;51.210;6.838;2023-04-03T16:09:25;23.10;20.00
27492;DHT22;14927;51.210;6.838;2023-04-03T16:12:11;22.70;20.10
27492;DHT22;14927;51.210;6.838;2023-04-03T16:14:58;22.40;20.30
27492;DHT22;14927;51.210;6.838;2023-04-03T16:17:44;22.00;20.70
27492;DHT22;14927;51.210;6.838;2023-04-03T16:20:29;21.50;20.90
27492;DHT22;14927;51.210;6.838;2023-04-03T16:23:14;21.10;21.20
27492;DHT22;14927;51.210;6.838;2023-04-03T16:26:04;20.80;21.60
27492;DHT22;14927;51.210;6.838;2023-04-03T16:28:50;20.40;21.70
27492;DHT22;14927;51.210;6.838;2023-04-03T16:31:35;19.90;22.10
27492;DHT22;14927;51.210;6.838;2023-04-03T16:34:23;19.70;22.50
27492;DHT22;14927;51.210;6.838;2023-04-03T16:37:09;19.40;22.70
27492;DHT22;14927;51.210;6.838;2023-04-03T16:40:02;19.20;22.90
27492;DHT22;14927;51.210;6.838;2023-04-03T16:42:50;19.00;23.00
27492;DHT22;14927;51.210;6.838;2023-04-03T16:45:34;18.80;23.20
27492;DHT22;14927;51.210;6.838;2023-04-03T16:48:19;18.50;23.50
27492;DHT22;14927;51.210;6.838;2023-04-03T16:51:04;18.20;23.70
27492;DHT22;14927;51.210;6.838;2023-04-03T16:53:49;18.10;24.00
27492;DHT22;14927;51.210;6.838;2023-04-03T16:56:34;17.90;24.50
27492;DHT22;14927;51.210;6.838;2023-04-03T16:59:19;17.70;24.60
27492;DHT22;14927;51.210;6.838;2023-04-03T17:02:04;17.50;24.70
27492;DHT22;14927;51.210;6.838;2023-04-03T17:04:50;17.40;25.00
27492;DHT22;14927;51.210;6.838;2023-04-03T17:07:38;17.20;25.00
27492;DHT22;14927;51.210;6.838;2023-04-03T17:10:24;17.10;25.20
27492;DHT22;14927;51.210;6.838;2023-04-03T17:13:13;16.90;25.50
27492;DHT22;14927;51.210;6.838;2023-04-03T17:16:04;16.70;25.60
27492;DHT22;14927;51.210;6.838;2023-04-03T17:18:52;16.60;25.80
27492;DHT22;14927;51.210;6.838;2023-04-03T17:21:37;16.50;26.00
27492;DHT22;14927;51.210;6.838;2023-04-03T17:24:22;16.30;26.30
27492;DHT22;14927;51.210;6.838;2023-04-03T17:27:07;16.20;26.50
27492;DHT22;14927;51.210;6.838;2023-04-03T17:29:52;16.10;26.80
27492;DHT22;14927;51.210;6.838;2023-04-03T17:32:37;15.80;26.80
27492;DHT22;14927;51.210;6.838;2023-04-03T17:35:22;15.90;27.00
27492;DHT22;14927;51.210;6.838;2023-04-03T17:38:07;15.80;27.10
27492;DHT22;14927;51.210;6.838;2023-04-03T17:40:56;15.70;27.30
27492;DHT22;14927;51.210;6.838;2023-04-03T17:43:42;15.50;27.40
27492;DHT22;14927;51.210;6.838;2023-04-03T17:46:26;15.40;27.40
27492;DHT22;14927;51.210;6.838;2023-04-03T17:49:13;15.40;27.50
27492;DHT22;14927;51.210;6.838;2023-04-03T17:51:58;15.30;27.70
27492;DHT22;14927;51.210;6.838;2023-04-03T17:54:43;15.20;28.00
27492;DHT22;14927;51.210;6.838;2023-04-03T18:05:38;14.90;28.20
27492;DHT22;14927;51.210;6.838;2023-04-03T18:08:26;14.80;28.30
27492;DHT22;14927;51.210;6.838;2023-04-03T18:11:11;14.70;28.40
27492;DHT22;14927;51.210;6.838;2023-04-03T18:13:58;14.60;28.50
27492;DHT22;14927;51.210;6.838;2023-04-03T18:16:45;14.50;28.70
27492;DHT22;14927;51.210;6.838;2023-04-03T18:19:33;14.50;28.80
27492;DHT22;14927;51.210;6.838;2023-04-03T18:22:20;14.40;28.90
27492;DHT22;14927;51.210;6.838;2023-04-03T18:25:06;14.30;28.90
27492;DHT22;14927;51.210;6.838;2023-04-03T18:27:51;14.20;28.90
27492;DHT22;14927;51.210;6.838;2023-04-03T18:30:37;14.10;29.10
27492;DHT22;14927;51.210;6.838;2023-04-03T18:33:22;14.10;29.20
27492;DHT22;14927;51.210;6.838;2023-04-03T18:36:06;14.00;29.30
27492;DHT22;14927;51.210;6.838;2023-04-03T18:38:52;13.90;29.40
27492;DHT22;14927;51.210;6.838;2023-04-03T18:41:40;13.80;29.60
27492;DHT22;14927;51.210;6.838;2023-04-03T18:44:26;13.70;29.70
27492;DHT22;14927;51.210;6.838;2023-04-03T18:47:11;13.70;29.70
27492;DHT22;14927;51.210;6.838;2023-04-03T18:49:57;13.60;29.80
27492;DHT22;14927;51.210;6.838;2023-04-03T18:52:42;13.60;29.90
27492;DHT22;14927;51.210;6.838;2023-04-03T18:55:27;13.40;30.00
27492;DHT22;14927;51.210;6.838;2023-04-03T18:58:11;13.50;30.00
27492;DHT22;14927;51.210;6.838;2023-04-03T19:00:58;13.40;30.20
27492;DHT22;14927;51.210;6.838;2023-04-03T19:03:43;13.40;30.40
27492;DHT22;14927;51.210;6.838;2023-04-03T19:06:32;13.30;30.50
27492;DHT22;14927;51.210;6.838;2023-04-03T19:09:18;13.20;30.70
27492;DHT22;14927;51.210;6.838;2023-04-03T19:12:07;13.20;30.80
27492;DHT22;14927;51.210;6.838;2023-04-03T19:14:51;13.10;30.90
27492;DHT22;14927;51.210;6.838;2023-04-03T19:17:36;13.10;31.00